KIAD/IAD METAR and TAF weather

Enter ICAO airport designator
Station Type Date Time Source
KIAD METAR 2019/07/18 10:52 UTC NOAA

KIAD 181052Z 00000KT 10SM SCT060 BKN075 BKN095 25/23 A2989 RMK AO2 RAB45E51 SLP119 P0000 T02500233


Station Type Date Time Source
KIAD Decoded METAR 2019/07/18 10:52 UTC NOAA

DULLES INTERNATIONAL AIRPORT, VA, United States (KIAD) 38-56N 077-27W 93M
Jul 18, 2019 - 06:52 AM EDT / 2019.07.18 1052 UTC
Wind: Calm:0
Visibility: 10 mile(s):0
Sky conditions: mostly cloudy
Precipitation last hour: A trace
Temperature: 77.0 F (25.0 C)
Dew Point: 73.9 F (23.3 C)
Relative Humidity: 90%
Pressure (altimeter): 29.89 in. Hg (1012 hPa)
ob: KIAD 181052Z 00000KT 10SM SCT060 BKN075 BKN095 25/23 A2989 RMK AO2 RAB45E51 SLP119 P0000 T02500233
cycle: 11

Station Type Date Time Source
KIAD TAF 2019/07/18 12:27 UTC NOAA

TAF KIAD 181124Z 1812/1918 25004KT P6SM SCT050 BKN100
FM181800 27005KT P6SM -SHRA VCTS BKN050CB
FM182200 27006KT P6SM VCSH BKN050
FM190100 VRB03KT P6SM SCT050
FM190700 VRB03KT P6SM FEW200

Example: see airport list